Main page
METAR-TAF:

METAR-TAF

Airports :

Delaware County Airport (Johnson Field)

Muncie, Indiana, United States

latitude: 40-14-03N, longitude: 085-23-37W, elevation: 935 ft

Current weather observation

The report was made 51 minutes ago, at 03:53 UTC
Wind 5 mph from the West
Temperature 39°F
Humidity 60%
Pressure 30.15 in. Hg
Visibility: 10 miles
Clear sky

METAR: KMIE 290353Z AUTO 26004KT 10SM CLR 04/M03 A3015 RMK AO2 SLP212 T00391033

Time: 23:44 (04:44 UTC)


TAF: missing

Weather observations and forecasts of more than 4000 airports (METAR and TAF reports).

The available stations are represented by yellow and red dots on the map.

Hover mouse over dot to see the name of the station.

Then click to see weather observations and forecasts.

To change the map : click on the green buttons with a black cross to zoom in, on the green button with a dash to zoom out, or on the green arrows for adjacent maps.


METAR-TAF: